Latest Weather Observations for Coondewanna

IDW60801

Issued at 2:32 pm WST Thursday 26 May 2016 (issued every 30 minutes, with the page automatically refreshed every 10 minutes)

About weather observations | Map of weather stations | Latest weather observations for WA | Other Formats
Station Details ID: 505051 Name: COONDEWANNA Lat: -22.96 Lon: 118.81 Height: 697.63 m
Data from the previous 72 hours. | See also: Recent months for locations in Western Australia
Date/Time
WST
Temp
°C
App
Temp
°C
Dew
Point
Rel
Hum
%
Delta-T
°C
Wind Press
QNH
hPa
Press
MSL
hPa
Rain
since 9 am
mm
Dir
 
Spd
km/h
Gust
km/h
Spd
kts
Gust
kts
26/02:30pm 26.3 24.4 14.1 47 7.5 WSW 17 26 9 14 1017.5 1014.6 0.0
26/02:00pm 26.1 23.5 13.9 47 7.4 SSW 20 30 11 16 1017.6 1014.7 0.0
26/01:30pm 26.2 24.3 14.3 48 7.3 WSW 17 26 9 14 1017.9 1015.1 0.0
26/01:00pm 25.7 23.5 14.5 50 6.9 SW 19 33 10 18 1018.1 1015.3 0.0
26/12:30pm 25.7 24.3 14.5 50 6.9 SW 15 26 8 14 1018.1 1015.3 0.0
26/12:00pm 25.1 23.9 15.1 53 6.2 SW 15 24 8 13 1018.6 1015.7 0.0
26/11:30am 24.9 23.1 15.5 56 5.9 WSW 19 26 10 14 1019.0 1016.1 0.0
26/11:00am 24.2 22.6 15.9 59 5.2 SW 19 26 10 14 1019.4 1016.6 0.0
26/10:31am 23.5 21.8 15.8 62 4.8 SW 19 26 10 14 1019.5 1016.7 0.0
26/10:30am 23.7 22.1 16.0 62 4.8 SW 19 26 10 14 1019.6 1016.8 0.0
26/10:00am 23.0 21.8 16.1 65 4.3 WSW 17 24 9 13 1019.8 1016.9 0.0
26/09:30am 22.7 21.2 16.3 67 4.0 SW 19 24 10 13 1019.8 1016.9 0.0
26/09:00am 21.3 19.7 16.0 72 3.3 WSW 19 26 10 14 1019.6 1016.8 0.0
26/08:30am 21.1 21.7 15.2 69 3.6 WSW 6 15 3 8 1019.4 1016.6 0.0
26/08:29am 21.1 21.6 15.0 68 3.7 WSW 6 15 3 8 1019.4 1016.6 0.0
26/08:00am 19.5 19.3 11.8 61 4.4 W 4 7 2 4 1019.0 1016.1 0.0
26/07:30am 18.2 17.7 9.3 56 4.8 W 2 6 1 3 1018.7 1015.8 0.0
26/07:00am 15.1 13.4 8.3 64 3.5 W 7 9 4 5 1018.1 1015.3 0.0
26/06:30am 14.1 12.8 7.6 65 3.3 W 4 6 2 3 1017.8 1014.9 0.0
26/06:00am 13.9 12.0 6.7 62 3.6 W 6 7 3 4 1017.8 1014.9 0.0
26/05:30am 14.3 13.1 6.6 60 3.9 W 2 6 1 3 1017.5 1014.6 0.0
26/05:00am 15.0 13.1 6.6 57 4.2 W 6 7 3 4 1017.2 1014.3 0.0
26/04:30am 15.4 13.2 6.4 55 4.5 W 7 9 4 5 1017.0 1014.1 0.0
26/04:00am 14.0 13.1 6.1 59 3.9 CALM 0 0 0 0 1016.9 1014.0 0.0
26/03:30am 14.4 13.2 6.3 58 4.0 W 2 6 1 3 1016.8 1013.9 0.0
26/03:00am 14.8 13.2 6.4 57 4.2 W 4 6 2 3 1016.7 1013.8 0.0
26/02:30am 14.7 13.8 6.0 56 4.3 CALM 0 0 0 0 1016.9 1014.0 0.0
26/02:00am 15.4 13.4 6.2 54 4.6 W 6 7 3 4 1017.0 1014.1 0.0
26/01:30am 14.4 13.6 6.5 59 4.0 CALM 0 0 0 0 1017.0 1014.1 0.0
26/01:00am 15.0 13.8 6.3 56 4.4 W 2 7 1 4 1017.0 1014.1 0.0
26/12:30am 16.1 14.0 6.0 51 5.1 W 6 7 3 4 1016.9 1014.0 0.0
26/12:00am 16.0 15.2 6.4 53 4.9 CALM 0 0 0 0 1016.8 1013.9 0.0
 
Date/Time
WST
Temp
°C
App
Temp
°C
Dew
Point
Rel
Hum
%
Delta-T
°C
Wind Press
QNH
hPa
Press
MSL
hPa
Rain
since 9 am
mm
Dir
 
Spd
km/h
Gust
km/h
Spd
kts
Gust
kts
25/11:30pm 17.4 15.3 6.6 49 5.5 W 7 9 4 5 1016.9 1014.0 0.0
25/11:00pm 17.0 14.9 6.8 51 5.2 W 7 9 4 5 1017.2 1014.3 0.0
25/10:30pm 17.9 16.1 7.0 49 5.7 W 6 7 3 4 1017.3 1014.4 0.0
25/10:00pm 19.1 17.1 6.9 45 6.4 W 7 7 4 4 1017.3 1014.4 0.0
25/09:30pm 20.3 19.5 6.6 41 7.2 CALM 0 4 0 2 1017.2 1014.3 0.0
25/09:00pm 21.8 19.9 6.5 37 8.0 W 6 9 3 5 1017.3 1014.4 0.0
25/08:30pm 21.0 19.5 6.9 40 7.4 SW 4 7 2 4 1017.1 1014.2 0.0
25/08:00pm 22.5 20.6 7.5 38 8.1 SW 7 9 4 5 1016.8 1013.9 0.0
25/07:30pm 23.5 21.1 7.2 35 8.8 SW 9 13 5 7 1016.4 1013.5 0.0
25/07:00pm 24.3 21.5 7.0 33 9.3 WSW 11 15 6 8 1016.0 1013.1 0.0
25/06:30pm 24.8 22.4 7.0 32 9.6 SW 9 11 5 6 1015.7 1012.8 0.0
25/06:00pm 26.2 23.1 7.3 30 10.3 SW 13 17 7 9 1015.4 1012.5 0.0
25/05:30pm 27.7 24.5 7.0 27 11.4 W 13 15 7 8 1014.9 1012.0 0.0
25/05:00pm 29.0 25.2 5.8 23 12.6 W 15 20 8 11 1014.7 1011.8 0.0
25/04:30pm 29.6 25.4 5.6 22 13.0 W 17 28 9 15 1014.5 1011.6 0.0
25/04:00pm 29.7 25.1 6.4 23 12.8 W 20 28 11 15 1014.3 1011.4 0.0
25/03:30pm 29.9 25.5 7.2 24 12.6 W 20 28 11 15 1014.2 1011.3 0.0
25/03:00pm 30.0 26.0 6.6 23 12.9 W 17 28 9 15 1014.1 1011.2 0.0
25/02:30pm 29.8 25.5 7.7 25 12.4 W 20 30 11 16 1014.3 1011.4 0.0
25/02:00pm 29.8 27.2 9.3 28 11.8 NW 13 26 7 14 1014.3 1011.4 0.0
25/01:30pm 29.9 27.3 9.4 28 11.8 W 13 24 7 13 1014.5 1011.6 0.0
25/01:00pm 29.3 26.1 8.4 27 11.8 WNW 15 20 8 11 1014.8 1011.9 0.0
25/12:30pm 28.9 25.7 8.6 28 11.5 WNW 15 30 8 16 1015.3 1012.3 0.0
25/12:00pm 29.0 26.5 9.7 30 11.1 NW 13 24 7 13 1015.7 1012.8 0.0
25/11:30am 27.5 24.5 10.7 35 9.8 NNW 17 24 9 13 1015.9 1013.0 0.0
25/11:00am 27.1 24.3 11.2 37 9.3 NNW 17 24 9 13 1016.3 1013.4 0.0
25/10:30am 26.7 23.5 12.0 40 8.7 NNW 20 26 11 14 1016.5 1013.6 0.0
25/10:00am 24.8 22.8 12.7 47 7.2 N 15 24 8 13 1016.8 1013.9 0.0
25/09:30am 23.2 22.3 12.5 51 6.3 NW 9 13 5 7 1017.0 1014.1 0.0
25/09:00am 22.2 21.0 12.7 55 5.6 NW 11 15 6 8 1017.0 1014.1 0.0
25/08:30am 21.1 21.4 12.3 57 5.1 N 2 7 1 4 1017.0 1014.1 0.0
25/08:00am 19.6 19.7 11.4 59 4.7 N 2 6 1 3 1016.9 1014.0 0.0
25/07:30am 17.9 17.0 10.8 63 4.0 N 6 7 3 4 1016.7 1013.8 0.0
25/07:00am 15.6 14.6 10.2 70 2.9 N 6 7 3 4 1016.4 1013.5 0.0
25/06:30am 14.9 13.6 9.9 72 2.7 N 7 7 4 4 1016.2 1013.3 0.0
25/06:00am 14.8 13.4 9.6 71 2.8 N 7 9 4 5 1015.9 1013.0 0.0
25/05:30am 14.6 13.3 9.8 73 2.6 N 7 9 4 5 1015.7 1012.8 0.0
25/05:00am 14.4 13.0 9.6 73 2.6 N 7 9 4 5 1015.4 1012.5 0.0
25/04:30am 14.2 14.0 9.2 72 2.6 CALM 0 0 0 0 1015.2 1012.2 0.0
25/04:00am 15.5 14.7 9.6 68 3.2 N 4 7 2 4 1015.3 1012.3 0.0
25/03:30am 16.3 15.1 10.4 68 3.2 N 7 7 4 4 1015.4 1012.5 0.0
25/03:00am 15.4 14.3 10.0 70 2.9 N 6 9 3 5 1015.5 1012.6 0.0
25/02:30am 16.2 15.5 10.1 67 3.3 N 4 7 2 4 1015.7 1012.8 0.0
25/02:00am 16.4 16.0 9.8 65 3.6 N 2 7 1 4 1015.9 1013.0 0.0
25/01:30am 16.8 16.1 10.2 65 3.6 N 4 7 2 4 1015.9 1013.0 0.0
25/01:00am 16.7 15.1 10.3 66 3.5 N 9 9 5 5 1016.1 1013.2 0.0
25/12:30am 16.6 16.5 9.5 63 3.8 CALM 0 0 0 0 1016.3 1013.4 0.0
25/12:00am 17.2 17.1 9.6 61 4.1 CALM 0 0 0 0 1016.5 1013.6 0.0
 
Date/Time
WST
Temp
°C
App
Temp
°C
Dew
Point
Rel
Hum
%
Delta-T
°C
Wind Press
QNH
hPa
Press
MSL
hPa
Rain
since 9 am
mm
Dir
 
Spd
km/h
Gust
km/h
Spd
kts
Gust
kts
24/11:30pm 17.6 16.5 9.8 60 4.3 N 6 7 3 4 1016.4 1013.5 0.0
24/11:00pm 18.1 16.4 10.0 59 4.4 N 9 11 5 6 1016.5 1013.6 0.0
24/10:30pm 18.6 17.9 9.9 57 4.8 N 4 6 2 3 1016.8 1013.9 0.0
24/10:00pm 18.4 17.9 9.5 56 4.8 N 2 7 1 4 1017.1 1014.2 0.0
24/09:30pm 19.9 18.8 10.0 53 5.5 N 6 7 3 4 1017.2 1014.3 0.0
24/09:00pm 20.6 19.1 10.4 52 5.7 N 9 9 5 5 1017.1 1014.2 0.0
24/08:30pm 20.9 19.8 10.1 50 6.0 N 6 7 3 4 1017.2 1014.3 0.0
24/08:00pm 21.7 20.5 10.2 48 6.5 N 7 9 4 5 1017.0 1014.1 0.0
24/07:30pm 22.5 20.8 10.0 45 7.0 NNW 9 11 5 6 1016.8 1013.9 0.0
24/07:00pm 23.3 21.6 9.7 42 7.6 NW 9 11 5 6 1016.4 1013.5 0.0
24/06:30pm 24.4 21.9 9.6 39 8.3 NNW 13 17 7 9 1015.9 1013.0 0.0
24/06:00pm 24.5 22.5 8.5 36 8.9 NW 9 11 5 6 1015.5 1012.6 0.0
24/05:30pm 25.9 23.1 8.4 33 9.7 NW 13 17 7 9 1015.3 1012.3 0.0
24/05:00pm 27.1 24.3 8.5 31 10.4 NW 13 20 7 11 1015.3 1012.3 0.0
24/04:30pm 27.8 25.0 8.6 30 10.8 NW 13 22 7 12 1015.2 1012.2 0.0
24/04:00pm 27.8 24.1 8.1 29 11.0 WNW 17 26 9 14 1015.3 1012.3 0.0
24/03:30pm 28.1 25.3 8.4 29 11.1 NW 13 28 7 15 1015.3 1012.3 0.0
24/03:00pm 27.9 24.4 8.7 30 10.8 NNW 17 26 9 14 1015.3 1012.3 0.0
24/02:30pm 27.5 23.9 8.4 30 10.7 WNW 17 26 9 14 1015.4 1012.5 0.0
24/02:00pm 26.8 23.9 9.6 34 9.8 NW 15 39 8 21 1015.6 1012.7 0.0
24/01:30pm 26.5 23.9 9.4 34 9.7 WNW 13 22 7 12 1016.0 1013.1 0.0
24/01:00pm 26.6 23.8 9.9 35 9.6 NNW 15 28 8 15 1016.4 1013.5 0.0
24/12:30pm 26.3 24.0 10.5 37 9.1 N 13 22 7 12 1016.9 1014.0 0.0
24/12:00pm 25.9 23.4 10.9 39 8.7 NNE 15 24 8 13 1017.2 1014.3 0.0
24/11:30am 25.7 23.6 11.1 40 8.5 NNW 13 28 7 15 1017.7 1014.8 0.0
24/11:00am 24.2 21.8 12.5 48 6.9 N 17 24 9 13 1018.3 1015.4 0.0
24/10:30am 23.2 20.9 13.1 53 6.0 N 17 24 9 13 1018.7 1015.8 0.0
24/10:00am 23.2 20.6 13.9 56 5.6 N 20 30 11 16 1018.8 1015.9 0.0
24/09:51am 22.5 20.0 14.1 59 5.1 N 20 30 11 16 1018.9 1016.0 0.0
24/09:37am 22.5 20.8 14.6 61 4.8 NNW 17 24 9 13 1019.0 1016.1 0.0
24/09:30am 22.1 20.4 14.7 63 4.5 NNW 17 24 9 13 1019.0 1016.1 0.0
24/09:00am 20.2 18.5 14.8 71 3.3 N 17 24 9 13 1019.0 1016.1 0.0
24/08:38am 20.2 18.5 14.6 70 3.4 N 17 22 9 12 1018.9 1016.0 0.0
24/08:30am 19.6 19.4 14.6 73 3.0 NNE 9 22 5 12 1018.8 1015.9 0.0
24/08:25am 19.3 19.3 14.1 72 3.1 NNE 7 9 4 5 1018.8 1015.9 0.0
24/08:03am 18.7 18.6 14.0 74 2.8 N 7 11 4 6 1018.9 1016.0 0.0
24/08:00am 18.7 18.6 14.0 74 2.8 N 7 11 4 6 1018.9 1016.0 0.0
24/07:30am 17.2 16.8 13.1 77 2.4 N 7 9 4 5 1018.7 1015.8 0.0
24/07:10am 15.1 15.1 11.3 78 2.1 N 2 7 1 4 1018.7 1015.8 0.0
24/07:03am 14.7 14.9 10.7 77 2.2 CALM 0 6 0 3 1018.6 1015.7 0.0
24/07:00am 14.6 14.4 10.4 76 2.3 N 2 6 1 3 1018.6 1015.7 0.0
24/06:45am 14.9 13.8 10.7 76 2.3 N 7 7 4 4 1018.3 1015.4 0.0
24/06:30am 16.2 15.1 12.0 76 2.4 N 9 13 5 7 1018.0 1015.2 0.0
24/06:00am 16.1 14.3 10.8 71 2.9 N 11 15 6 8 1017.7 1014.8 0.0
24/05:30am 16.2 14.9 9.8 66 3.5 N 7 11 4 6 1017.5 1014.6 0.0
24/05:00am 15.7 14.2 9.1 65 3.5 N 7 11 4 6 1017.5 1014.6 0.0
24/04:30am 15.1 13.0 8.3 64 3.6 NNE 9 11 5 6 1017.4 1014.5 0.0
24/04:00am 12.8 10.5 5.5 61 3.5 NNE 7 9 4 5 1017.3 1014.4 0.0
24/03:30am 11.7 9.4 4.7 62 3.3 N 6 11 3 6 1017.5 1014.6 0.0
24/03:00am 10.8 9.6 4.7 66 2.9 CALM 0 0 0 0 1017.5 1014.6 0.0
24/02:30am 11.6 9.7 4.8 63 3.2 E 4 9 2 5 1017.3 1014.4 0.0
24/02:00am 12.0 9.7 4.7 61 3.5 E 6 9 3 5 1017.6 1014.7 0.0
24/01:30am 12.2 9.8 5.1 62 3.4 E 7 9 4 5 1017.8 1014.9 0.0
24/01:00am 11.9 9.7 5.1 63 3.2 E 6 7 3 4 1018.1 1015.3 0.0
24/12:30am 12.0 10.9 5.0 62 3.3 CALM 0 0 0 0 1018.5 1015.6 0.0
24/12:00am 12.2 11.0 4.4 59 3.7 CALM 0 0 0 0 1018.5 1015.6 0.0
 
Date/Time
WST
Temp
°C
App
Temp
°C
Dew
Point
Rel
Hum
%
Delta-T
°C
Wind Press
QNH
hPa
Press
MSL
hPa
Rain
since 9 am
mm
Dir
 
Spd
km/h
Gust
km/h
Spd
kts
Gust
kts
23/11:30pm 12.8 11.6 4.8 58 3.8 CALM 0 0 0 0 1018.5 1015.6 0.0
23/11:00pm 12.9 10.9 4.3 56 4.1 E 4 6 2 3 1018.8 1015.9 0.0
23/10:30pm 13.7 12.5 4.8 55 4.3 CALM 0 0 0 0 1019.0 1016.1 0.0
23/10:00pm 14.0 12.9 4.9 54 4.4 CALM 0 0 0 0 1018.9 1016.0 0.0
23/09:30pm 15.3 13.0 4.7 49 5.2 E 6 7 3 4 1018.7 1015.8 0.0
23/09:00pm 16.1 13.6 4.8 47 5.5 E 7 9 4 5 1018.6 1015.7 0.0
23/08:30pm 17.4 14.6 5.0 44 6.2 E 9 11 5 6 1018.8 1015.9 0.0
23/08:00pm 18.2 15.7 4.7 41 6.7 E 7 9 4 5 1018.8 1015.9 0.0
23/07:30pm 18.8 16.3 4.6 39 7.1 NNE 7 11 4 6 1019.0 1016.1 0.0
23/07:00pm 19.6 16.7 4.5 37 7.5 N 9 9 5 5 1018.8 1015.9 0.0
23/06:30pm 20.4 17.9 4.8 36 7.9 N 7 9 4 5 1018.7 1015.8 0.0
23/06:00pm 21.4 19.0 4.5 33 8.5 N 6 9 3 5 1018.4 1015.5 0.0
23/05:30pm 22.9 20.3 4.4 30 9.4 N 7 9 4 5 1018.3 1015.4 0.0
23/05:00pm 24.1 20.7 4.0 27 10.2 N 11 15 6 8 1018.3 1015.4 0.0
23/04:30pm 24.5 20.7 3.8 26 10.5 N 13 20 7 11 1018.1 1015.3 0.0
23/04:00pm 24.7 21.4 4.5 27 10.4 E 11 17 6 9 1018.3 1015.4 0.0
23/03:30pm 25.0 21.1 5.2 28 10.4 NE 15 22 8 12 1018.1 1015.3 0.0
23/03:00pm 24.6 21.0 4.9 28 10.2 NE 13 20 7 11 1018.3 1015.4 0.0

Other Formats:

Comma delimited format used in spreadsheet applications
http://www.bom.gov.au/fwo/IDW60801/IDW60801.99312.axf

JavaScript Object Notation format (JSON) in row-major order
http://www.bom.gov.au/fwo/IDW60801/IDW60801.99312.json